Time;durP1;ratioP1;P1;durP2;ratioP2;P2;SDS_P1;SDS_P2;PMS_P1;PMS_P2;Temp;Humidity;BMP_temperature;BMP_pressure;BME280_temperature;BME280_humidity;BME280_pressure;Samples;Min_cycle;Max_cycle;Signal;HPM_P1;HPM_P2
2024/03/17 00:00:20;;;;;;;;;;;;;;;;;;5078111;28;19978;-61
2024/03/17 00:02:45;;;;;;;;;;;;;;;;;;5081442;28;19931;-61
2024/03/17 00:05:10;;;;;;;;;;;;;;;;;;5085614;28;20312;-61
2024/03/17 00:07:35;;;;;;;;;;;;;;;;;;5083097;28;19920;-61
2024/03/17 00:10:00;;;;;;;;;;;;;;;;;;5076798;28;19916;-62
2024/03/17 00:12:25;;;;;;;;;;;;;;;;;;5081668;28;20465;-61
2024/03/17 00:14:51;;;;;;;;;;;;;;;;;;5085138;28;19962;-61
2024/03/17 00:17:16;;;;;;;;;;;;;;;;;;5081994;28;19920;-61
2024/03/17 00:19:41;;;;;;;;;;;;;;;;;;5086456;28;20410;-61
2024/03/17 00:22:08;;;;;;;;;;;;;;;;;;5078063;28;19945;-61
2024/03/17 00:24:34;;;;;;;;;;;;;;;;;;5084011;28;20544;-61
2024/03/17 00:26:59;;;;;;;;;;;;;;;;;;5084087;28;21344;-62
2024/03/17 00:29:25;;;;;;;;;;;;;;;;;;5086935;28;19928;-62
2024/03/17 00:31:50;;;;;;;;;;;;;;;;;;5085223;28;19920;-60
2024/03/17 00:34:15;;;;;;;;;;;;;;;;;;5084718;28;19946;-61
2024/03/17 00:36:40;;;;;;;;;;;;;;;;;;5085458;28;19956;-60
2024/03/17 00:39:05;;;;;;;;;;;;;;;;;;5083107;28;19920;-59
2024/03/17 00:41:30;;;;;;;;;;;;;;;;;;5082921;28;19928;-59
2024/03/17 00:43:55;;;;;;;;;;;;;;;;;;5084277;28;19916;-59
2024/03/17 00:46:20;;;;;;;;;;;;;;;;;;5086593;28;19935;-58
2024/03/17 00:48:46;;;;;;;;;;;;;;;;;;5085710;28;19920;-58
2024/03/17 00:51:11;;;;;;;;;;;;;;;;;;5079739;28;19916;-59
2024/03/17 00:53:36;;;;;;;;;;;;;;;;;;5087112;28;19916;-61
2024/03/17 00:56:01;;;;;;;;;;;;;;;;;;5085838;28;19992;-59
2024/03/17 00:58:27;;;;;;;;;;;;;;;;;;5085350;28;19963;-59
2024/03/17 01:00:52;;;;;;;;;;;;;;;;;;5083339;28;19916;-58
2024/03/17 01:03:17;;;;;;;;;;;;;;;;;;5092555;28;20365;-59
2024/03/17 01:05:44;;;;;;;;;;;;;;;;;;5087346;28;19920;-58
2024/03/17 01:08:09;;;;;;;;;;;;;;;;;;5087813;28;20041;-58
2024/03/17 01:10:34;;;;;;;;;;;;;;;;;;5089242;28;20288;-59
2024/03/17 01:12:59;;;;;;;;;;;;;;;;;;5088586;28;21446;-58
2024/03/17 01:15:24;;;;;;;;;;;;;;;;;;5088704;28;20293;-58
2024/03/17 01:17:50;;;;;;;;;;;;;;;;;;5086969;28;20351;-59
2024/03/17 01:20:15;;;;;;;;;;;;;;;;;;5085538;28;19920;-60
2024/03/17 01:22:41;;;;;;;;;;;;;;;;;;5086543;28;19919;-58
2024/03/17 01:25:08;;;;;;;;;;;;;;;;;;5089406;28;19913;-58
2024/03/17 01:27:33;;;;;;;;;;;;;;;;;;5088774;28;20351;-58
2024/03/17 01:29:58;;;;;;;;;;;;;;;;;;5091650;28;20372;-58
2024/03/17 01:32:24;;;;;;;;;;;;;;;;;;5090818;28;20365;-58
2024/03/17 01:34:49;;;;;;;;;;;;;;;;;;5091188;28;19920;-58
2024/03/17 01:37:14;;;;;;;;;;;;;;;;;;5091940;28;19984;-59
2024/03/17 01:39:39;;;;;;;;;;;;;;;;;;5091852;28;19920;-59
2024/03/17 01:42:04;;;;;;;;;;;;;;;;;;5091319;28;19920;-58
2024/03/17 01:44:30;;;;;;;;;;;;;;;;;;5089976;28;19912;-60
2024/03/17 01:46:56;;;;;;;;;;;;;;;;;;5090612;28;19936;-58
2024/03/17 01:49:21;;;;;;;;;;;;;;;;;;5091695;28;20352;-58
2024/03/17 01:51:46;;;;;;;;;;;;;;;;;;5086050;28;20318;-59
2024/03/17 01:54:11;;;;;;;;;;;;;;;;;;5092499;28;20392;-59
2024/03/17 01:56:36;;;;;;;;;;;;;;;;;;5091252;28;20352;-59
2024/03/17 01:59:01;;;;;;;;;;;;;;;;;;5090170;28;20318;-59
2024/03/17 02:01:26;;;;;;;;;;;;;;;;;;5091025;28;19912;-59
2024/03/17 02:03:51;;;;;;;;;;;;;;;;;;5091353;28;19999;-59
2024/03/17 02:06:17;;;;;;;;;;;;;;;;;;5087200;28;19916;-58
2024/03/17 02:08:42;;;;;;;;;;;;;;;;;;5090001;28;20254;-60
2024/03/17 02:11:07;;;;;;;;;;;;;;;;;;5088634;28;19952;-58
2024/03/17 02:13:33;;;;;;;;;;;;;;;;;;5089921;28;19965;-58
2024/03/17 02:15:58;;;;;;;;;;;;;;;;;;5088787;28;19930;-59
2024/03/17 02:18:23;;;;;;;;;;;;;;;;;;5099271;28;19916;-61
2024/03/17 02:21:00;;;;;;;;;;;;;;;;;;5098574;28;19916;-58
2024/03/17 02:23:26;;;;;;;;;;;;;;;;;;5095711;28;19926;-59
2024/03/17 02:25:51;;;;;;;;;;;;;;;;;;5095577;28;19920;-59
2024/03/17 02:28:16;;;;;;;;;;;;;;;;;;5097048;28;19920;-60
2024/03/17 02:30:42;;;;;;;;;;;;;;;;;;5095604;28;19912;-59
2024/03/17 02:33:07;;;;;;;;;;;;;;;;;;5092392;28;20381;-62
2024/03/17 02:35:33;;;;;;;;;;;;;;;;;;5095807;28;19920;-58
2024/03/17 02:37:58;;;;;;;;;;;;;;;;;;5095056;28;19923;-58
2024/03/17 02:40:23;;;;;;;;;;;;;;;;;;5097226;28;19912;-58
2024/03/17 02:42:48;;;;;;;;;;;;;;;;;;5094438;28;19920;-58
2024/03/17 02:45:13;;;;;;;;;;;;;;;;;;5095242;28;19912;-60
2024/03/17 02:47:39;;;;;;;;;;;;;;;;;;5090371;28;21050;-59
2024/03/17 02:50:04;;;;;;;;;;;;;;;;;;5094275;28;19999;-58
2024/03/17 02:52:29;;;;;;;;;;;;;;;;;;5088570;28;19915;-60
2024/03/17 02:54:55;;;;;;;;;;;;;;;;;;5092910;28;20145;-59
2024/03/17 02:57:21;;;;;;;;;;;;;;;;;;5092621;28;19917;-62
2024/03/17 02:59:46;;;;;;;;;;;;;;;;;;5089185;28;19920;-58
2024/03/17 03:02:11;;;;;;;;;;;;;;;;;;5089203;28;19977;-59
2024/03/17 03:04:36;;;;;;;;;;;;;;;;;;5083372;28;20387;-59
2024/03/17 03:07:01;;;;;;;;;;;;;;;;;;5087537;28;20003;-58
2024/03/17 03:09:31;;;;;;;;;;;;;;;;;;5085923;28;19919;-59
2024/03/17 03:11:56;;;;;;;;;;;;;;;;;;5090441;28;20383;-58
2024/03/17 03:14:21;;;;;;;;;;;;;;;;;;5083692;28;19913;-58
2024/03/17 03:16:46;;;;;;;;;;;;;;;;;;5085941;28;19912;-58
2024/03/17 03:19:12;;;;;;;;;;;;;;;;;;5084388;28;20006;-58
2024/03/17 03:21:37;;;;;;;;;;;;;;;;;;5088675;28;19912;-59
2024/03/17 03:24:02;;;;;;;;;;;;;;;;;;5089048;28;19920;-59
2024/03/17 03:26:28;;;;;;;;;;;;;;;;;;5090284;28;19920;-59
2024/03/17 03:28:54;;;;;;;;;;;;;;;;;;5087182;28;19957;-59
2024/03/17 03:31:19;;;;;;;;;;;;;;;;;;5086110;28;19912;-59
2024/03/17 03:33:44;;;;;;;;;;;;;;;;;;5081353;28;19912;-59
2024/03/17 03:36:09;;;;;;;;;;;;;;;;;;5085705;28;20334;-59
2024/03/17 03:38:34;;;;;;;;;;;;;;;;;;5086790;28;19916;-59
2024/03/17 03:40:59;;;;;;;;;;;;;;;;;;5087215;28;19920;-59
2024/03/17 03:43:27;;;;;;;;;;;;;;;;;;5090419;28;19916;-60
2024/03/17 03:45:53;;;;;;;;;;;;;;;;;;5085437;28;19912;-58
2024/03/17 03:48:18;;;;;;;;;;;;;;;;;;5084419;28;19916;-58
2024/03/17 03:50:43;;;;;;;;;;;;;;;;;;5086549;28;19926;-59
2024/03/17 03:53:08;;;;;;;;;;;;;;;;;;5081205;28;19966;-58
2024/03/17 03:55:33;;;;;;;;;;;;;;;;;;5086676;28;20369;-58
2024/03/17 03:57:59;;;;;;;;;;;;;;;;;;5081139;28;19917;-58
2024/03/17 04:00:25;;;;;;;;;;;;;;;;;;5089834;28;19973;-59
2024/03/17 04:02:51;;;;;;;;;;;;;;;;;;5082083;28;20519;-59
2024/03/17 04:05:16;;;;;;;;;;;;;;;;;;5085279;28;19924;-58
2024/03/17 04:07:42;;;;;;;;;;;;;;;;;;5085213;28;19919;-61
2024/03/17 04:10:07;;;;;;;;;;;;;;;;;;5084832;28;19912;-59
2024/03/17 04:12:33;;;;;;;;;;;;;;;;;;5086014;28;19919;-59
2024/03/17 04:14:58;;;;;;;;;;;;;;;;;;5084056;28;19919;-59
2024/03/17 04:17:23;;;;;;;;;;;;;;;;;;5086363;28;19916;-60
2024/03/17 04:19:48;;;;;;;;;;;;;;;;;;5085960;28;20377;-59
2024/03/17 04:22:13;;;;;;;;;;;;;;;;;;5087154;28;20274;-58
2024/03/17 04:24:38;;;;;;;;;;;;;;;;;;5083043;28;19919;-59
2024/03/17 04:27:04;;;;;;;;;;;;;;;;;;5083857;28;19913;-58
2024/03/17 04:29:29;;;;;;;;;;;;;;;;;;5088963;28;19913;-61
2024/03/17 04:31:54;;;;;;;;;;;;;;;;;;5088604;28;19919;-59
2024/03/17 04:34:19;;;;;;;;;;;;;;;;;;5085754;28;20586;-59
2024/03/17 04:36:45;;;;;;;;;;;;;;;;;;5085713;28;19916;-58
2024/03/17 04:39:10;;;;;;;;;;;;;;;;;;5088668;28;20444;-59
2024/03/17 04:41:36;;;;;;;;;;;;;;;;;;5086732;28;19931;-60
2024/03/17 04:44:01;;;;;;;;;;;;;;;;;;5089766;28;19912;-59
2024/03/17 04:46:26;;;;;;;;;;;;;;;;;;5090704;28;19934;-60
2024/03/17 04:48:52;;;;;;;;;;;;;;;;;;5092161;28;19916;-59
2024/03/17 04:51:17;;;;;;;;;;;;;;;;;;5089948;28;19966;-58
2024/03/17 04:53:42;;;;;;;;;;;;;;;;;;5092969;28;19947;-59
2024/03/17 04:56:07;;;;;;;;;;;;;;;;;;5086001;28;19913;-59
2024/03/17 04:58:32;;;;;;;;;;;;;;;;;;5088651;28;19916;-59
2024/03/17 05:00:57;;;;;;;;;;;;;;;;;;5094274;28;19912;-59
2024/03/17 05:03:22;;;;;;;;;;;;;;;;;;5089128;28;20701;-59
2024/03/17 05:05:48;;;;;;;;;;;;;;;;;;5092506;28;19919;-59
2024/03/17 05:08:13;;;;;;;;;;;;;;;;;;5086622;28;19959;-58
2024/03/17 05:10:38;;;;;;;;;;;;;;;;;;5090587;28;19912;-59
2024/03/17 05:13:03;;;;;;;;;;;;;;;;;;5088524;28;19916;-60
2024/03/17 05:15:28;;;;;;;;;;;;;;;;;;5093704;28;19978;-59
2024/03/17 05:17:53;;;;;;;;;;;;;;;;;;5091033;28;20412;-59
2024/03/17 05:20:19;;;;;;;;;;;;;;;;;;5086430;28;20388;-58
2024/03/17 05:22:46;;;;;;;;;;;;;;;;;;5090667;28;19913;-59
2024/03/17 05:25:12;;;;;;;;;;;;;;;;;;5088958;28;19912;-59
2024/03/17 05:27:38;;;;;;;;;;;;;;;;;;5088795;28;19912;-59
2024/03/17 05:30:04;;;;;;;;;;;;;;;;;;5088559;28;19953;-59
2024/03/17 05:32:29;;;;;;;;;;;;;;;;;;5092846;28;19919;-58
2024/03/17 05:34:54;;;;;;;;;;;;;;;;;;5089977;28;19912;-59
2024/03/17 05:37:19;;;;;;;;;;;;;;;;;;5092646;28;19939;-58
2024/03/17 05:39:44;;;;;;;;;;;;;;;;;;5090862;28;19920;-58
2024/03/17 05:42:11;;;;;;;;;;;;;;;;;;5089656;28;19920;-59
2024/03/17 05:44:49;;;;;;;;;;;;;;;;;;5089875;28;19924;-60
2024/03/17 05:47:14;;;;;;;;;;;;;;;;;;5089669;28;20371;-58
2024/03/17 05:49:42;;;;;;;;;;;;;;;;;;5088307;28;20443;-60
2024/03/17 05:52:08;;;;;;;;;;;;;;;;;;5089619;28;19919;-59
2024/03/17 05:54:33;;;;;;;;;;;;;;;;;;5086809;28;19913;-58
2024/03/17 05:56:58;;;;;;;;;;;;;;;;;;5092498;28;19942;-59
2024/03/17 05:59:23;;;;;;;;;;;;;;;;;;5083845;28;19969;-59
2024/03/17 06:01:48;;;;;;;;;;;;;;;;;;5091821;28;19959;-60
2024/03/17 06:04:14;;;;;;;;;;;;;;;;;;5091073;28;19916;-59
2024/03/17 06:06:39;;;;;;;;;;;;;;;;;;5089276;28;20330;-58
2024/03/17 06:09:04;;;;;;;;;;;;;;;;;;5089624;28;19912;-59
2024/03/17 06:11:29;;;;;;;;;;;;;;;;;;5088864;28;19920;-60
2024/03/17 06:13:54;;;;;;;;;;;;;;;;;;5090588;28;19912;-58
2024/03/17 06:16:20;;;;;;;;;;;;;;;;;;5084175;28;19916;-59
2024/03/17 06:18:45;;;;;;;;;;;;;;;;;;5090430;28;20014;-58
2024/03/17 06:21:11;;;;;;;;;;;;;;;;;;5089407;28;19912;-59
2024/03/17 06:23:36;;;;;;;;;;;;;;;;;;5090727;28;19920;-59
2024/03/17 06:26:02;;;;;;;;;;;;;;;;;;5087099;28;20272;-59
2024/03/17 06:28:27;;;;;;;;;;;;;;;;;;5090354;28;19961;-61
2024/03/17 06:30:53;;;;;;;;;;;;;;;;;;5090145;28;19916;-61
2024/03/17 06:33:19;;;;;;;;;;;;;;;;;;5090077;28;20221;-60
2024/03/17 06:35:44;;;;;;;;;;;;;;;;;;5089658;28;19935;-60
2024/03/17 06:38:09;;;;;;;;;;;;;;;;;;5088850;28;20394;-60
2024/03/17 06:40:35;;;;;;;;;;;;;;;;;;5089818;28;19952;-60
2024/03/17 06:43:00;;;;;;;;;;;;;;;;;;5086886;28;20043;-60
2024/03/17 06:45:25;;;;;;;;;;;;;;;;;;5092418;28;19912;-60
2024/03/17 06:47:50;;;;;;;;;;;;;;;;;;5091088;28;20384;-60
2024/03/17 06:50:15;;;;;;;;;;;;;;;;;;5090601;28;20414;-60
2024/03/17 06:52:40;;;;;;;;;;;;;;;;;;5091124;28;19937;-60
2024/03/17 06:55:06;;;;;;;;;;;;;;;;;;5089902;28;19924;-60
2024/03/17 06:57:33;;;;;;;;;;;;;;;;;;5096541;28;19923;-62
2024/03/17 06:59:59;;;;;;;;;;;;;;;;;;5086865;28;19923;-60
2024/03/17 07:02:24;;;;;;;;;;;;;;;;;;5094790;28;19920;-61
2024/03/17 07:04:49;;;;;;;;;;;;;;;;;;5089625;28;20032;-60
2024/03/17 07:07:14;;;;;;;;;;;;;;;;;;5087884;28;20055;-60
2024/03/17 07:09:40;;;;;;;;;;;;;;;;;;5088650;28;19923;-61
2024/03/17 07:12:05;;;;;;;;;;;;;;;;;;5089535;28;19926;-61
2024/03/17 07:14:31;;;;;;;;;;;;;;;;;;5089764;28;19927;-61
2024/03/17 07:16:56;;;;;;;;;;;;;;;;;;5089987;28;19920;-61
2024/03/17 07:19:21;;;;;;;;;;;;;;;;;;5096028;28;19920;-61
2024/03/17 07:21:46;;;;;;;;;;;;;;;;;;5087711;28;19916;-60
2024/03/17 07:24:12;;;;;;;;;;;;;;;;;;5088710;28;19912;-60
2024/03/17 07:26:37;;;;;;;;;;;;;;;;;;5085715;28;19919;-59
2024/03/17 07:29:02;;;;;;;;;;;;;;;;;;5087336;28;20384;-59
2024/03/17 07:31:27;;;;;;;;;;;;;;;;;;5088492;28;19912;-59
2024/03/17 07:33:52;;;;;;;;;;;;;;;;;;5090130;28;19912;-59
2024/03/17 07:36:17;;;;;;;;;;;;;;;;;;5090430;28;19912;-59
2024/03/17 07:38:43;;;;;;;;;;;;;;;;;;5089858;28;19916;-60
2024/03/17 07:41:08;;;;;;;;;;;;;;;;;;5088293;28;19916;-60
2024/03/17 07:43:33;;;;;;;;;;;;;;;;;;5083956;28;19917;-61
2024/03/17 07:45:58;;;;;;;;;;;;;;;;;;5087254;28;19916;-61
2024/03/17 07:48:23;;;;;;;;;;;;;;;;;;5083838;28;19912;-60
2024/03/17 07:50:48;;;;;;;;;;;;;;;;;;5089542;28;19973;-60
2024/03/17 07:53:13;;;;;;;;;;;;;;;;;;5085216;28;19912;-60
2024/03/17 07:55:38;;;;;;;;;;;;;;;;;;5087604;28;19916;-60
2024/03/17 07:58:04;;;;;;;;;;;;;;;;;;5084919;28;19928;-60
2024/03/17 08:00:29;;;;;;;;;;;;;;;;;;5088696;28;19918;-60
2024/03/17 08:02:54;;;;;;;;;;;;;;;;;;5086197;28;20085;-60
2024/03/17 08:05:19;;;;;;;;;;;;;;;;;;5087112;28;19920;-60
2024/03/17 08:07:45;;;;;;;;;;;;;;;;;;5081382;28;19966;-60
2024/03/17 08:10:10;;;;;;;;;;;;;;;;;;5082025;28;20324;-60
2024/03/17 08:12:35;;;;;;;;;;;;;;;;;;5086252;28;20013;-59
2024/03/17 08:15:00;;;;;;;;;;;;;;;;;;5099384;28;19923;-59
2024/03/17 08:17:25;;;;;;;;;;;;;;;;;;5093553;28;20006;-59
2024/03/17 08:19:50;;;;;;;;;;;;;;;;;;5096001;28;19960;-59
2024/03/17 08:22:15;;;;;;;;;;;;;;;;;;5095235;28;19916;-59
2024/03/17 08:24:41;;;;;;;;;;;;;;;;;;5081282;28;19912;-59
2024/03/17 08:27:06;;;;;;;;;;;;;;;;;;5088258;28;19916;-58
2024/03/17 08:29:31;;;;;;;;;;;;;;;;;;5085034;28;19934;-58
2024/03/17 08:31:56;;;;;;;;;;;;;;;;;;5087039;28;19957;-59
2024/03/17 08:34:21;;;;;;;;;;;;;;;;;;5086107;28;19955;-59
2024/03/17 08:36:47;;;;;;;;;;;;;;;;;;5081820;28;19956;-59
2024/03/17 08:39:12;;;;;;;;;;;;;;;;;;5086471;28;19916;-58
2024/03/17 08:41:37;;;;;;;;;;;;;;;;;;5086249;28;19920;-58
2024/03/17 08:44:02;;;;;;;;;;;;;;;;;;5089023;28;19923;-58
2024/03/17 08:46:27;;;;;;;;;;;;;;;;;;5085819;28;20372;-59
2024/03/17 08:48:52;;;;;;;;;;;;;;;;;;5087081;28;19999;-58
2024/03/17 08:51:17;;;;;;;;;;;;;;;;;;5086005;28;19951;-58
2024/03/17 08:53:43;;;;;;;;;;;;;;;;;;5089053;28;19916;-58
2024/03/17 08:56:08;;;;;;;;;;;;;;;;;;5084864;28;19912;-58
2024/03/17 08:58:33;;;;;;;;;;;;;;;;;;5086088;28;19998;-59
2024/03/17 09:00:58;;;;;;;;;;;;;;;;;;5087755;28;19912;-59
2024/03/17 09:03:25;;;;;;;;;;;;;;;;;;5086597;28;19916;-58
2024/03/17 09:05:54;;;;;;;;;;;;;;;;;;5087225;28;19965;-58
2024/03/17 09:08:20;;;;;;;;;;;;;;;;;;5081585;28;19912;-58
2024/03/17 09:10:45;;;;;;;;;;;;;;;;;;5089514;28;19923;-59
2024/03/17 09:13:10;;;;;;;;;;;;;;;;;;5086327;28;19927;-58
2024/03/17 09:15:35;;;;;;;;;;;;;;;;;;5087084;28;19916;-60
2024/03/17 09:18:02;;;;;;;;;;;;;;;;;;5084709;28;20415;-60
2024/03/17 09:20:27;;;;;;;;;;;;;;;;;;5080989;28;20023;-59
2024/03/17 09:22:53;;;;;;;;;;;;;;;;;;5085891;28;20057;-59
2024/03/17 09:25:18;;;;;;;;;;;;;;;;;;5089473;28;20416;-59
2024/03/17 09:27:43;;;;;;;;;;;;;;;;;;5088046;28;19935;-61
2024/03/17 09:30:12;;;;;;;;;;;;;;;;;;5090552;28;19923;-60
2024/03/17 09:32:37;;;;;;;;;;;;;;;;;;5092553;28;19912;-59
2024/03/17 09:35:02;;;;;;;;;;;;;;;;;;5089402;28;19931;-59
2024/03/17 09:37:27;;;;;;;;;;;;;;;;;;5091638;28;20353;-59
2024/03/17 09:39:53;;;;;;;;;;;;;;;;;;5089976;28;19923;-60
2024/03/17 09:42:18;;;;;;;;;;;;;;;;;;5089058;28;19951;-59
2024/03/17 09:44:43;;;;;;;;;;;;;;;;;;5092132;28;19919;-58
2024/03/17 09:47:09;;;;;;;;;;;;;;;;;;5089836;28;20388;-59
2024/03/17 09:49:34;;;;;;;;;;;;;;;;;;5092313;28;19970;-59
2024/03/17 09:51:59;;;;;;;;;;;;;;;;;;5089681;28;19943;-59
2024/03/17 09:54:24;;;;;;;;;;;;;;;;;;5091553;28;19965;-58
2024/03/17 09:56:50;;;;;;;;;;;;;;;;;;5088169;28;20384;-60
2024/03/17 09:59:15;;;;;;;;;;;;;;;;;;5089443;28;19920;-58
2024/03/17 10:01:42;;;;;;;;;;;;;;;;;;5090222;28;20006;-59
2024/03/17 10:04:10;;;;;;;;;;;;;;;;;;5087685;28;19917;-59
2024/03/17 10:06:35;;;;;;;;;;;;;;;;;;5082374;28;20003;-59
2024/03/17 10:09:04;;;;;;;;;;;;;;;;;;5091924;28;20015;-58
2024/03/17 10:11:29;;;;;;;;;;;;;;;;;;5092055;28;19918;-58
2024/03/17 10:13:54;;;;;;;;;;;;;;;;;;5091669;28;20023;-59
2024/03/17 10:16:19;;;;;;;;;;;;;;;;;;5087063;28;19951;-58
2024/03/17 10:18:44;;;;;;;;;;;;;;;;;;5088529;28;19916;-62
2024/03/17 10:21:09;;;;;;;;;;;;;;;;;;5069334;28;19920;-61
2024/03/17 10:23:35;;;;;;;;;;;;;;;;;;5087501;28;19920;-63
2024/03/17 10:26:00;;;;;;;;;;;;;;;;;;5092585;28;20003;-64
2024/03/17 10:28:25;;;;;;;;;;;;;;;;;;5090700;28;20036;-63
2024/03/17 10:30:50;;;;;;;;;;;;;;;;;;5086998;28;19951;-62
2024/03/17 10:33:17;;;;;;;;;;;;;;;;;;5084654;28;19920;-62
2024/03/17 10:35:42;;;;;;;;;;;;;;;;;;5090742;28;19913;-61
2024/03/17 10:38:08;;;;;;;;;;;;;;;;;;5095899;28;19926;-62
2024/03/17 10:40:33;;;;;;;;;;;;;;;;;;5090676;28;20353;-61
2024/03/17 10:42:58;;;;;;;;;;;;;;;;;;5091639;28;19919;-62
2024/03/17 10:45:24;;;;;;;;;;;;;;;;;;5087867;28;19920;-62
2024/03/17 10:47:49;;;;;;;;;;;;;;;;;;5090520;28;19923;-61
2024/03/17 10:50:14;;;;;;;;;;;;;;;;;;5090961;28;19946;-61
2024/03/17 10:52:40;;;;;;;;;;;;;;;;;;5088588;28;20450;-61
2024/03/17 10:55:05;;;;;;;;;;;;;;;;;;5090541;28;19981;-61
2024/03/17 10:57:30;;;;;;;;;;;;;;;;;;5090432;28;19912;-62
2024/03/17 10:59:55;;;;;;;;;;;;;;;;;;5086449;28;19925;-61
2024/03/17 11:02:22;;;;;;;;;;;;;;;;;;5091022;28;19941;-62
2024/03/17 11:04:48;;;;;;;;;;;;;;;;;;5090567;28;19966;-62
2024/03/17 11:07:13;;;;;;;;;;;;;;;;;;5090071;28;20360;-62
2024/03/17 11:09:38;;;;;;;;;;;;;;;;;;5084432;28;20257;-65
2024/03/17 11:12:03;;;;;;;;;;;;;;;;;;5089635;28;19938;-66
2024/03/17 11:14:28;;;;;;;;;;;;;;;;;;5095034;27;20533;-65
2024/03/17 11:16:53;;;;;;;;;;;;;;;;;;5108392;28;19918;-65
2024/03/17 11:19:18;;;;;;;;;;;;;;;;;;5103242;28;19985;-65
2024/03/17 11:21:44;;;;;;;;;;;;;;;;;;5106669;28;19990;-65
2024/03/17 11:24:09;;;;;;;;;;;;;;;;;;5103663;28;19912;-65
2024/03/17 11:26:35;;;;;;;;;;;;;;;;;;5102932;28;19999;-65
2024/03/17 11:29:02;;;;;;;;;;;;;;;;;;5105836;28;20029;-65
2024/03/17 11:31:27;;;;;;;;;;;;;;;;;;5104853;28;19916;-65
2024/03/17 11:33:52;;;;;;;;;;;;;;;;;;5109490;28;19911;-65
2024/03/17 11:36:17;;;;;;;;;;;;;;;;;;5109028;28;19933;-65
2024/03/17 11:38:42;;;;;;;;;;;;;;;;;;5106013;28;20395;-65
2024/03/17 11:41:08;;;;;;;;;;;;;;;;;;5105711;28;19930;-65
2024/03/17 11:43:33;;;;;;;;;;;;;;;;;;5106062;28;19919;-66
2024/03/17 11:45:58;;;;;;;;;;;;;;;;;;5102395;28;19915;-66
2024/03/17 11:48:23;;;;;;;;;;;;;;;;;;5105419;28;19947;-65
2024/03/17 11:50:48;;;;;;;;;;;;;;;;;;5108407;28;20017;-65
2024/03/17 11:53:13;;;;;;;;;;;;;;;;;;5103244;28;19912;-65
2024/03/17 11:55:40;;;;;;;;;;;;;;;;;;5105564;28;19915;-65
2024/03/17 11:58:05;;;;;;;;;;;;;;;;;;5104421;28;20261;-65
2024/03/17 12:00:31;;;;;;;;;;;;;;;;;;5106906;28;20539;-65
2024/03/17 12:02:58;;;;;;;;;;;;;;;;;;5104469;28;19919;-65
2024/03/17 12:05:24;;;;;;;;;;;;;;;;;;5108242;28;19934;-65
2024/03/17 12:07:50;;;;;;;;;;;;;;;;;;5103354;28;19912;-65
2024/03/17 12:10:16;;;;;;;;;;;;;;;;;;5104775;28;19915;-65
2024/03/17 12:12:41;;;;;;;;;;;;;;;;;;5105627;28;19920;-65
2024/03/17 12:15:06;;;;;;;;;;;;;;;;;;5108647;28;19915;-66
2024/03/17 12:17:31;;;;;;;;;;;;;;;;;;5105622;28;19919;-65
2024/03/17 12:19:58;;;;;;;;;;;;;;;;;;5110139;28;19956;-61
2024/03/17 12:22:24;;;;;;;;;;;;;;;;;;5109076;28;19915;-62
2024/03/17 12:24:49;;;;;;;;;;;;;;;;;;5109801;28;19922;-62
2024/03/17 12:27:14;;;;;;;;;;;;;;;;;;5110452;28;19915;-62
2024/03/17 12:29:42;;;;;;;;;;;;;;;;;;5107406;28;19972;-61
2024/03/17 12:32:07;;;;;;;;;;;;;;;;;;5110376;28;19915;-62
2024/03/17 12:34:34;;;;;;;;;;;;;;;;;;5104436;28;19919;-61
2024/03/17 12:36:59;;;;;;;;;;;;;;;;;;5109176;28;20269;-62
2024/03/17 12:39:25;;;;;;;;;;;;;;;;;;5106795;28;19915;-62
2024/03/17 12:41:50;;;;;;;;;;;;;;;;;;5106944;28;19923;-62
2024/03/17 12:44:15;;;;;;;;;;;;;;;;;;5109086;28;20409;-62
2024/03/17 12:46:41;;;;;;;;;;;;;;;;;;5108775;28;19920;-62
2024/03/17 12:49:07;;;;;;;;;;;;;;;;;;5108959;28;20006;-62
2024/03/17 12:51:40;;;;;;;;;;;;;;;;;;5107217;28;21674;-64
2024/03/17 12:54:05;;;;;;;;;;;;;;;;;;5108354;28;19985;-62
2024/03/17 13:01:58;;;;;;;;;;;;;;;;;;5110919;28;20252;-62
2024/03/17 13:04:23;;;;;;;;;;;;;;;;;;5112117;28;20292;-62
2024/03/17 13:06:49;;;;;;;;;;;;;;;;;;5113513;28;20377;-62
2024/03/17 13:09:14;;;;;;;;;;;;;;;;;;5111937;28;19919;-62
2024/03/17 13:11:40;;;;;;;;;;;;;;;;;;5110044;28;20376;-62
2024/03/17 13:14:05;;;;;;;;;;;;;;;;;;5113209;28;19946;-62
2024/03/17 13:16:31;;;;;;;;;;;;;;;;;;5107116;28;19961;-63
2024/03/17 13:18:56;;;;;;;;;;;;;;;;;;5111956;28;19916;-62
2024/03/17 13:21:21;;;;;;;;;;;;;;;;;;5108534;28;20296;-62
2024/03/17 13:23:46;;;;;;;;;;;;;;;;;;5112373;28;20261;-61
2024/03/17 13:26:12;;;;;;;;;;;;;;;;;;5111960;28;19922;-62
2024/03/17 13:28:37;;;;;;;;;;;;;;;;;;5107161;28;19966;-63
2024/03/17 13:31:03;;;;;;;;;;;;;;;;;;5107036;28;19968;-62
2024/03/17 13:33:29;;;;;;;;;;;;;;;;;;5107363;28;19938;-62
2024/03/17 13:35:54;;;;;;;;;;;;;;;;;;5108376;28;19916;-62
2024/03/17 13:38:19;;;;;;;;;;;;;;;;;;5103954;28;19919;-62
2024/03/17 13:40:44;;;;;;;;;;;;;;;;;;5109981;28;19916;-62
2024/03/17 13:43:10;;;;;;;;;;;;;;;;;;5105861;28;19970;-63
2024/03/17 13:45:35;;;;;;;;;;;;;;;;;;5109656;28;19973;-62
2024/03/17 13:48:00;;;;;;;;;;;;;;;;;;5108346;28;19922;-62
2024/03/17 13:50:25;;;;;;;;;;;;;;;;;;5107066;28;20374;-62
2024/03/17 13:52:51;;;;;;;;;;;;;;;;;;5109967;28;19920;-63
2024/03/17 13:55:16;;;;;;;;;;;;;;;;;;5107736;28;19923;-62
2024/03/17 13:57:41;;;;;;;;;;;;;;;;;;5108675;28;19922;-62
2024/03/17 14:00:07;;;;;;;;;;;;;;;;;;5108271;28;19931;-62
2024/03/17 14:02:32;;;;;;;;;;;;;;;;;;5109593;28;20008;-62
2024/03/17 14:04:58;;;;;;;;;;;;;;;;;;5107255;28;19969;-63
2024/03/17 14:07:23;;;;;;;;;;;;;;;;;;5106159;28;19915;-62
2024/03/17 14:09:48;;;;;;;;;;;;;;;;;;5103156;28;19980;-62
2024/03/17 14:12:13;;;;;;;;;;;;;;;;;;5108536;28;19923;-62
2024/03/17 14:14:39;;;;;;;;;;;;;;;;;;5109063;28;19923;-62
2024/03/17 14:17:04;;;;;;;;;;;;;;;;;;5085433;28;19916;-62
2024/03/17 14:19:29;;;;;;;;;;;;;;;;;;5103395;28;19928;-61
2024/03/17 14:21:54;;;;;;;;;;;;;;;;;;5107297;28;19915;-61
2024/03/17 14:24:19;;;;;;;;;;;;;;;;;;5108879;28;19985;-62
2024/03/17 14:26:45;;;;;;;;;;;;;;;;;;5108797;28;19919;-62
2024/03/17 14:29:10;;;;;;;;;;;;;;;;;;5106315;28;19930;-64
2024/03/17 14:31:36;;;;;;;;;;;;;;;;;;5109391;28;19920;-62
2024/03/17 14:34:02;;;;;;;;;;;;;;;;;;5108189;28;20380;-62
2024/03/17 14:36:28;;;;;;;;;;;;;;;;;;5103290;28;19916;-62
2024/03/17 14:38:53;;;;;;;;;;;;;;;;;;5108595;28;20538;-65
2024/03/17 14:41:18;;;;;;;;;;;;;;;;;;5103005;28;20022;-65
2024/03/17 14:43:44;;;;;;;;;;;;;;;;;;5107696;28;19974;-66
2024/03/17 14:46:12;;;;;;;;;;;;;;;;;;5105774;28;19916;-65
2024/03/17 14:48:37;;;;;;;;;;;;;;;;;;5101704;28;19969;-65
2024/03/17 14:51:03;;;;;;;;;;;;;;;;;;5108961;28;19916;-64
2024/03/17 14:53:28;;;;;;;;;;;;;;;;;;5107623;28;19916;-65
2024/03/17 14:55:54;;;;;;;;;;;;;;;;;;5107681;28;19916;-65
2024/03/17 14:58:19;;;;;;;;;;;;;;;;;;5103716;28;19926;-65
2024/03/17 15:00:46;;;;;;;;;;;;;;;;;;5107795;28;19920;-65
2024/03/17 15:03:11;;;;;;;;;;;;;;;;;;5105637;28;19954;-64
2024/03/17 15:05:36;;;;;;;;;;;;;;;;;;5107425;28;19920;-64
2024/03/17 15:08:02;;;;;;;;;;;;;;;;;;5105808;28;19961;-64
2024/03/17 15:10:27;;;;;;;;;;;;;;;;;;5104941;28;19919;-64
2024/03/17 15:12:52;;;;;;;;;;;;;;;;;;5106700;28;19958;-63
2024/03/17 15:15:17;;;;;;;;;;;;;;;;;;5106009;28;19998;-62
2024/03/17 15:17:44;;;;;;;;;;;;;;;;;;5106790;28;19968;-66
2024/03/17 15:20:19;;;;;;;;;;;;;;;;;;5102741;28;19959;-65
2024/03/17 15:22:44;;;;;;;;;;;;;;;;;;5103144;28;19947;-63
2024/03/17 15:25:09;;;;;;;;;;;;;;;;;;5103898;28;19951;-65
2024/03/17 15:27:34;;;;;;;;;;;;;;;;;;5101360;28;19969;-65
2024/03/17 15:29:59;;;;;;;;;;;;;;;;;;5105255;28;19969;-66
2024/03/17 15:32:24;;;;;;;;;;;;;;;;;;5101048;28;19923;-65
2024/03/17 15:34:50;;;;;;;;;;;;;;;;;;5106668;28;19922;-65
2024/03/17 15:37:15;;;;;;;;;;;;;;;;;;5105503;28;20003;-66
2024/03/17 15:39:40;;;;;;;;;;;;;;;;;;5105272;28;19924;-67
2024/03/17 15:42:06;;;;;;;;;;;;;;;;;;5101797;28;19928;-65
2024/03/17 15:44:31;;;;;;;;;;;;;;;;;;5102663;28;19920;-66
2024/03/17 15:46:56;;;;;;;;;;;;;;;;;;5106519;28;19920;-66
2024/03/17 15:49:21;;;;;;;;;;;;;;;;;;5102954;28;19920;-66
2024/03/17 15:51:46;;;;;;;;;;;;;;;;;;5106838;28;19951;-65
2024/03/17 15:54:11;;;;;;;;;;;;;;;;;;5101593;28;19919;-63
2024/03/17 15:56:36;;;;;;;;;;;;;;;;;;5104896;28;20323;-64
2024/03/17 15:59:02;;;;;;;;;;;;;;;;;;5102302;28;20338;-65
2024/03/17 16:01:27;;;;;;;;;;;;;;;;;;5100855;28;19916;-64
2024/03/17 16:03:52;;;;;;;;;;;;;;;;;;5098313;28;19968;-65
2024/03/17 16:06:17;;;;;;;;;;;;;;;;;;5100652;28;19920;-65
2024/03/17 16:08:42;;;;;;;;;;;;;;;;;;5102128;28;19936;-64
2024/03/17 16:11:09;;;;;;;;;;;;;;;;;;5097061;28;20373;-63
2024/03/17 16:13:35;;;;;;;;;;;;;;;;;;5100324;28;19955;-64
2024/03/17 16:16:00;;;;;;;;;;;;;;;;;;5101475;28;19958;-63
2024/03/17 16:18:27;;;;;;;;;;;;;;;;;;5101237;28;20451;-63
2024/03/17 16:20:55;;;;;;;;;;;;;;;;;;5085845;28;20310;-64
2024/03/17 16:23:21;;;;;;;;;;;;;;;;;;5101950;28;20356;-63
2024/03/17 16:25:46;;;;;;;;;;;;;;;;;;5103137;28;19977;-65
2024/03/17 16:28:11;;;;;;;;;;;;;;;;;;5102113;28;19923;-64
2024/03/17 16:30:37;;;;;;;;;;;;;;;;;;5105221;28;19916;-63
2024/03/17 16:33:03;;;;;;;;;;;;;;;;;;5104828;28;19920;-65
2024/03/17 16:35:28;;;;;;;;;;;;;;;;;;5109690;28;19923;-65
2024/03/17 16:37:53;;;;;;;;;;;;;;;;;;5104908;28;19919;-63